Time;durP1;ratioP1;P1;durP2;ratioP2;P2;SDS_P1;SDS_P2;PMS_P1;PMS_P2;Temp;Humidity;BMP_temperature;BMP_pressure;BME280_temperature;BME280_humidity;BME280_pressure;Samples;Min_cycle;Max_cycle;Signal;HPM_P1;HPM_P2
2021/11/27 00:02:10;;;;;;;0.93;0.60;;;;;;;-149.78;100.00;50514.47;5027111;28;20030;-65
2021/11/27 00:04:36;;;;;;;2.88;0.70;;;;;;;-149.78;100.00;50518.38;5027180;28;20037;-66
2021/11/27 00:07:02;;;;;;;1.15;0.60;;;;;;;-149.78;100.00;50518.38;5031004;28;20036;-66
2021/11/27 00:09:28;;;;;;;3.75;0.60;;;;;;;-149.78;100.00;50522.28;5031246;28;20048;-66
2021/11/27 00:11:54;;;;;;;1.30;0.55;;;;;;;-149.78;100.00;50526.22;5030811;28;20076;-66
2021/11/27 00:14:20;;;;;;;2.58;0.70;;;;;;;-149.78;100.00;50522.28;5028518;28;20465;-66
2021/11/27 00:16:46;;;;;;;2.95;0.52;;;;;;;-149.78;100.00;50522.28;5032201;28;20041;-67
2021/11/27 00:19:12;;;;;;;0.50;0.50;;;;;;;-149.78;100.00;50524.25;5030500;28;20028;-66
2021/11/27 00:21:39;;;;;;;0.40;0.40;;;;;;;-149.78;100.00;50526.22;5030628;28;20056;-66
2021/11/27 00:24:05;;;;;;;0.85;0.38;;;;;;;-149.78;100.00;50502.75;5028043;28;20033;-66
2021/11/27 00:26:31;;;;;;;0.60;0.50;;;;;;;-149.78;100.00;50463.63;5033609;28;20056;-66
2021/11/27 00:28:57;;;;;;;0.40;0.40;;;;;;;-149.78;100.00;50510.56;5029028;28;20067;-66
2021/11/27 00:31:27;;;;;;;1.17;0.40;;;;;;;-149.78;100.00;50508.59;5029935;28;20148;-66
2021/11/27 00:33:54;;;;;;;0.40;0.30;;;;;;;-149.78;100.00;50496.88;5031095;28;20076;-66
2021/11/27 00:36:22;;;;;;;0.95;0.52;;;;;;;-149.78;100.00;50526.22;5032072;28;20120;-66
2021/11/27 00:38:48;;;;;;;0.70;0.40;;;;;;;-149.78;100.00;50491.00;5032737;28;20033;-66
2021/11/27 00:41:15;;;;;;;1.23;0.30;;;;;;;-149.78;100.00;50524.25;5030787;28;20547;-65
2021/11/27 00:43:40;;;;;;;0.85;0.43;;;;;;;-149.78;100.00;50528.16;5021832;28;20032;-66
2021/11/27 00:46:06;;;;;;;0.50;0.40;;;;;;;-149.78;100.00;50494.91;5031556;28;20046;-66
2021/11/27 00:48:34;;;;;;;0.80;0.30;;;;;;;-149.78;100.00;50491.00;5030747;28;20072;-66
2021/11/27 00:51:04;;;;;;;1.33;0.50;;;;;;;-149.78;100.00;50506.66;5029815;28;20033;-66
2021/11/27 00:53:30;;;;;;;3.25;0.52;;;;;;;-149.78;100.00;50502.75;5030657;28;20045;-66
2021/11/27 00:55:55;;;;;;;1.52;0.40;;;;;;;-149.78;100.00;50530.13;5029634;28;20049;-66
2021/11/27 00:58:22;;;;;;;0.80;0.40;;;;;;;-149.78;100.00;50491.00;5031312;28;20436;-66
2021/11/27 01:01:00;;;;;;;3.88;0.70;;;;;;;-149.78;100.00;50518.38;5031342;28;20030;-67
2021/11/27 01:03:28;;;;;;;1.95;0.40;;;;;;;-149.78;100.00;50506.66;5024192;28;20083;-66
2021/11/27 01:05:57;;;;;;;2.78;0.73;;;;;;;-149.78;100.00;50514.47;5027872;28;20025;-66
2021/11/27 01:08:24;;;;;;;3.00;0.93;;;;;;;-149.78;100.00;50498.81;5029801;28;20030;-67
2021/11/27 01:11:12;;;;;;;2.65;0.70;;;;;;;-149.78;100.00;50545.75;5030671;28;20562;-66
2021/11/27 01:13:39;;;;;;;3.47;0.70;;;;;;;-149.78;100.00;50491.00;5029324;28;20039;-66
2021/11/27 01:16:06;;;;;;;2.75;0.70;;;;;;;-149.78;100.00;50547.72;5021503;28;20089;-67
2021/11/27 01:18:32;;;;;;;0.95;0.57;;;;;;;-149.78;100.00;50520.34;5038529;28;20056;-66
2021/11/27 01:21:01;;;;;;;3.40;0.80;;;;;;;-149.78;100.00;50491.00;5025658;28;20072;-66
2021/11/27 01:23:28;;;;;;;3.45;0.65;;;;;;;-149.78;100.00;50481.22;5027599;28;20053;-66
2021/11/27 01:25:55;;;;;;;5.25;0.88;;;;;;;-149.78;100.00;50514.47;5026050;28;20030;-66
2021/11/27 01:28:22;;;;;;;3.08;0.60;;;;;;;-149.78;100.00;50518.38;5029284;28;20032;-67
2021/11/27 01:30:52;;;;;;;5.30;1.00;;;;;;;-149.78;100.00;50510.56;5030302;28;20045;-67
2021/11/27 01:33:18;;;;;;;6.35;0.90;;;;;;;-149.78;100.00;50541.84;5030359;28;20347;-67
2021/11/27 01:35:44;;;;;;;6.70;0.70;;;;;;;-149.78;100.00;50496.88;5030811;28;20033;-67
2021/11/27 01:38:11;;;;;;;1.88;0.45;;;;;;;-149.78;100.00;50492.97;5033794;28;20724;-67
2021/11/27 01:40:37;;;;;;;4.82;0.73;;;;;;;-149.78;100.00;50498.81;5027544;28;20103;-66
2021/11/27 01:43:05;;;;;;;5.03;0.63;;;;;;;-149.78;100.00;50510.56;5027669;28;20022;-67
2021/11/27 01:45:30;;;;;;;1.83;0.75;;;;;;;-149.78;100.00;50502.75;5030672;28;20033;-67
2021/11/27 01:48:00;;;;;;;2.53;0.75;;;;;;;-149.78;100.00;50522.28;5030973;28;20416;-66
2021/11/27 01:50:27;;;;;;;3.33;0.90;;;;;;;-149.78;100.00;50514.47;5027307;28;20036;-67
2021/11/27 01:52:53;;;;;;;1.58;0.60;;;;;;;-149.78;100.00;50506.66;5032903;28;20499;-67
2021/11/27 01:55:19;;;;;;;1.23;0.52;;;;;;;-149.78;100.00;50516.44;5028999;28;20044;-67
2021/11/27 01:57:45;;;;;;;1.50;0.68;;;;;;;-149.78;100.00;50506.66;5031111;28;20033;-67
2021/11/27 02:00:15;;;;;;;0.57;0.30;;;;;;;-149.78;100.00;50534.03;5034910;28;20041;-67
2021/11/27 02:02:43;;;;;;;1.08;0.50;;;;;;;-149.78;100.00;50530.13;5030643;28;20033;-67
2021/11/27 02:05:10;;;;;;;2.38;0.50;;;;;;;-149.78;100.00;50506.66;5034525;28;20033;-67
2021/11/27 02:07:37;;;;;;;3.15;0.70;;;;;;;-149.78;100.00;50530.13;5042563;28;20104;-66
2021/11/27 02:10:06;;;;;;;0.73;0.50;;;;;;;-149.78;100.00;50492.97;5033939;28;20056;-66
2021/11/27 02:12:35;;;;;;;0.43;0.43;;;;;;;-149.78;100.00;50518.38;5034788;28;20026;-66
2021/11/27 02:15:00;;;;;;;1.52;0.70;;;;;;;-149.78;100.00;50510.56;5031611;28;20546;-67
2021/11/27 02:17:29;;;;;;;2.13;0.50;;;;;;;-149.78;100.00;50514.47;5031307;28;20036;-67
2021/11/27 02:19:54;;;;;;;0.73;0.38;;;;;;;-149.78;100.00;50541.84;5030431;28;20037;-66
2021/11/27 02:22:20;;;;;;;1.70;0.40;;;;;;;-149.78;100.00;50510.56;5030843;28;20056;-67
2021/11/27 02:24:46;;;;;;;0.82;0.55;;;;;;;-149.78;100.00;50541.84;5041114;28;20044;-67
2021/11/27 02:27:13;;;;;;;0.77;0.40;;;;;;;-149.78;100.00;50557.50;5037089;28;20029;-66
2021/11/27 02:29:43;;;;;;;2.72;0.45;;;;;;;-149.78;100.00;50522.28;5028916;28;20362;-66
2021/11/27 02:32:11;;;;;;;5.60;0.60;;;;;;;-149.78;100.00;50541.84;5030457;28;20141;-67
2021/11/27 02:34:37;;;;;;;2.60;0.85;;;;;;;-149.78;100.00;50547.72;5031411;28;20038;-67
2021/11/27 02:37:07;;;;;;;2.47;0.70;;;;;;;-149.78;100.00;50553.59;5029547;28;20034;-67
2021/11/27 02:39:35;;;;;;;0.82;0.40;;;;;;;-149.78;100.00;50487.09;5032168;28;20037;-67
2021/11/27 02:42:03;;;;;;;0.50;0.50;;;;;;;-149.78;100.00;50545.75;5033161;28;20036;-67
2021/11/27 02:44:32;;;;;;;3.63;0.95;;;;;;;-149.78;100.00;50512.50;5034546;28;20539;-67
2021/11/27 02:47:02;;;;;;;0.77;0.45;;;;;;;-149.78;100.00;50502.75;5033944;28;20179;-67
2021/11/27 02:49:28;;;;;;;0.20;0.20;;;;;;;-149.78;100.00;50491.00;5031202;28;20033;-67
2021/11/27 02:51:54;;;;;;;0.45;0.40;;;;;;;-149.78;100.00;50559.47;5032491;28;20036;-67
2021/11/27 02:54:20;;;;;;;0.25;0.25;;;;;;;-149.78;100.00;50545.75;5036077;28;20033;-67
2021/11/27 02:56:47;;;;;;;0.85;0.40;;;;;;;-149.78;100.00;50534.03;5040417;28;20416;-67
2021/11/27 02:59:16;;;;;;;1.75;0.20;;;;;;;-149.78;100.00;50483.19;5033887;28;20049;-67
2021/11/27 03:01:44;;;;;;;0.73;0.25;;;;;;;-149.78;100.00;50514.47;5030661;28;20652;-67
2021/11/27 03:04:10;;;;;;;0.20;0.20;;;;;;;-149.78;100.00;50526.22;5031615;28;20045;-67
2021/11/27 03:06:35;;;;;;;0.47;0.35;;;;;;;-149.78;100.00;50518.38;5039876;28;20067;-67
2021/11/27 03:09:04;;;;;;;0.30;0.28;;;;;;;-149.78;100.00;50557.50;5039286;28;20080;-67
2021/11/27 03:11:30;;;;;;;0.73;0.25;;;;;;;-149.78;100.00;50537.94;5044258;28;20037;-68
2021/11/27 03:13:56;;;;;;;0.22;0.22;;;;;;;-149.78;100.00;50545.75;5026204;28;20025;-67
2021/11/27 03:16:27;;;;;;;0.40;0.40;;;;;;;-149.78;100.00;50534.03;5031223;28;20052;-67
2021/11/27 03:18:53;;;;;;;0.52;0.40;;;;;;;-149.78;100.00;50534.03;5030047;28;20389;-68
2021/11/27 03:21:21;;;;;;;1.63;0.45;;;;;;;-149.78;100.00;50553.59;5027934;28;20485;-68
2021/11/27 03:23:48;;;;;;;2.72;0.43;;;;;;;-149.78;100.00;50557.50;5031892;28;20034;-67
2021/11/27 03:26:14;;;;;;;4.32;0.63;;;;;;;-149.78;100.00;50530.13;5031643;28;20504;-67
2021/11/27 03:28:39;;;;;;;2.05;0.77;;;;;;;-149.78;100.00;50518.38;5033418;28;20025;-67
2021/11/27 03:31:05;;;;;;;2.25;0.57;;;;;;;-149.78;100.00;50573.16;5030828;28;20132;-67
2021/11/27 03:33:31;;;;;;;1.85;0.80;;;;;;;-149.78;100.00;50498.81;5030622;28;20528;-67
2021/11/27 03:35:57;;;;;;;3.97;0.30;;;;;;;-149.78;100.00;50526.22;5029706;28;20033;-67
2021/11/27 03:38:24;;;;;;;0.77;0.32;;;;;;;-149.78;100.00;50557.50;5033039;28;20377;-67
2021/11/27 03:40:50;;;;;;;0.68;0.40;;;;;;;-149.78;100.00;50522.28;5032363;28;20111;-67
2021/11/27 03:43:16;;;;;;;2.03;0.88;;;;;;;-149.78;100.00;50534.03;5032001;28;20077;-68
2021/11/27 03:45:41;;;;;;;1.15;0.68;;;;;;;-149.78;100.00;50565.31;5031852;28;20144;-68
2021/11/27 03:48:14;;;;;;;4.00;0.88;;;;;;;-149.78;100.00;50510.56;5032127;28;20032;-68
2021/11/27 03:50:43;;;;;;;2.30;0.52;;;;;;;-149.78;100.00;50530.13;5028538;28;20036;-68
2021/11/27 03:53:13;;;;;;;3.22;0.90;;;;;;;-149.78;100.00;50526.22;5032563;28;20029;-68
2021/11/27 03:55:39;;;;;;;4.25;1.10;;;;;;;-149.78;100.00;50522.28;5030180;28;20083;-68
2021/11/27 03:58:04;;;;;;;2.63;0.90;;;;;;;-149.78;100.00;50569.22;5026746;28;20025;-68
2021/11/27 04:00:30;;;;;;;2.22;0.90;;;;;;;-149.78;100.00;50526.22;5027600;28;20048;-68
2021/11/27 04:02:57;;;;;;;1.80;0.93;;;;;;;-149.78;100.00;50557.50;5025726;28;20040;-68
2021/11/27 04:05:24;;;;;;;1.25;0.80;;;;;;;-149.78;100.00;50553.59;5020517;28;20120;-68
2021/11/27 04:07:58;;;;;;;1.88;0.90;;;;;;;-149.78;100.00;50498.81;5026276;28;20083;-68
2021/11/27 04:10:25;;;;;;;1.48;0.80;;;;;;;-149.78;100.00;50530.13;5033083;28;20033;-67
2021/11/27 04:12:57;;;;;;;1.25;0.75;;;;;;;-149.78;100.00;50545.75;5029200;28;20104;-67
2021/11/27 04:15:23;;;;;;;0.65;0.43;;;;;;;-149.78;100.00;50553.59;5021168;28;20030;-68
2021/11/27 04:17:49;;;;;;;0.60;0.30;;;;;;;-149.78;100.00;50522.28;5026096;28;20037;-67
2021/11/27 04:20:16;;;;;;;2.05;0.43;;;;;;;-149.78;100.00;50553.59;5037362;28;20362;-67
2021/11/27 04:22:41;;;;;;;0.13;0.13;;;;;;;-149.78;100.00;50586.84;5026497;28;20038;-68
2021/11/27 04:25:08;;;;;;;0.30;0.20;;;;;;;-149.78;100.00;50526.22;5035257;28;20037;-67
2021/11/27 04:27:35;;;;;;;0.20;0.20;;;;;;;-149.78;100.00;50534.03;5030784;28;20116;-68
2021/11/27 04:30:07;;;;;;;2.42;0.40;;;;;;;-149.78;100.00;50530.13;5029620;28;20041;-68
2021/11/27 04:32:33;;;;;;;0.30;0.30;;;;;;;-149.78;100.00;50537.94;5032014;28;20140;-68
2021/11/27 04:34:59;;;;;;;0.22;0.22;;;;;;;-149.78;100.00;50522.28;5029654;28;20131;-68
2021/11/27 04:37:25;;;;;;;0.32;0.30;;;;;;;-149.78;100.00;50557.50;5031954;28;20041;-68
2021/11/27 04:39:52;;;;;;;0.20;0.20;;;;;;;-149.78;100.00;50555.53;5030927;28;20041;-68
2021/11/27 04:42:18;;;;;;;0.20;0.20;;;;;;;-149.78;100.00;50577.06;5023083;28;20025;-68
2021/11/27 04:44:44;;;;;;;0.10;0.10;;;;;;;-149.78;100.00;50539.91;5028314;28;20051;-68
2021/11/27 04:47:10;;;;;;;0.10;0.10;;;;;;;-149.78;100.00;50592.72;5030654;28;20029;-68
2021/11/27 04:49:36;;;;;;;0.10;0.10;;;;;;;-149.78;100.00;50577.06;5028779;28;20546;-68
2021/11/27 04:52:02;;;;;;;0.47;0.22;;;;;;;-149.78;100.00;50565.31;5031325;28;20187;-68
2021/11/27 04:54:28;;;;;;;0.15;0.15;;;;;;;-149.78;100.00;50573.16;5031019;28;20044;-68
2021/11/27 04:56:54;;;;;;;0.10;0.10;;;;;;;-149.78;100.00;50516.44;5018314;28;20064;-68
2021/11/27 04:59:21;;;;;;;0.10;0.10;;;;;;;-149.78;100.00;50592.72;5025073;28;20022;-68
2021/11/27 05:01:47;;;;;;;0.10;0.10;;;;;;;-149.78;100.00;50561.41;5031985;28;20408;-68
2021/11/27 05:04:13;;;;;;;0.10;0.10;;;;;;;-149.78;100.00;50561.41;5029954;28;20727;-68
2021/11/27 05:06:39;;;;;;;0.13;0.10;;;;;;;-149.78;100.00;50573.16;5030730;28;20029;-68
2021/11/27 05:09:04;;;;;;;0.47;0.22;;;;;;;-149.78;100.00;50563.38;5024908;28;20456;-68
2021/11/27 05:11:30;;;;;;;0.13;0.13;;;;;;;-149.78;100.00;50535.97;5030640;28;20500;-68
2021/11/27 05:13:56;;;;;;;1.00;0.20;;;;;;;-149.78;100.00;50549.69;5030579;28;20064;-68
2021/11/27 05:16:23;;;;;;;0.22;0.10;;;;;;;-149.78;100.00;50592.72;5030374;28;20046;-68
2021/11/27 05:18:49;;;;;;;0.30;0.30;;;;;;;-149.78;100.00;50588.78;5025449;28;20450;-67
2021/11/27 05:21:15;;;;;;;0.10;0.10;;;;;;;-149.78;100.00;50565.31;5031422;28;20053;-67
2021/11/27 05:23:41;;;;;;;0.20;0.10;;;;;;;-149.78;100.00;50551.63;5029544;28;21456;-68
2021/11/27 05:26:06;;;;;;;0.30;0.10;;;;;;;-149.78;100.00;50596.63;5032898;28;20037;-67
2021/11/27 05:28:32;;;;;;;0.10;0.10;;;;;;;-149.78;100.00;50553.59;5032241;28;20033;-67
2021/11/27 05:30:57;;;;;;;0.30;0.10;;;;;;;-149.78;100.00;50569.22;5032331;28;20053;-67
2021/11/27 05:33:35;;;;;;;0.20;0.15;;;;;;;-149.78;100.00;50577.06;5031094;28;20052;-67
2021/11/27 05:36:02;;;;;;;0.20;0.10;;;;;;;-149.78;100.00;50545.75;5035998;28;20053;-67
2021/11/27 05:38:29;;;;;;;0.15;0.15;;;;;;;-149.78;100.00;50541.84;5030542;28;20037;-68
2021/11/27 05:40:55;;;;;;;0.25;0.08;;;;;;;-149.78;100.00;50569.22;5026644;28;20483;-68
2021/11/27 05:43:21;;;;;;;0.38;0.10;;;;;;;-149.78;100.00;50600.53;5031538;28;20061;-68
2021/11/27 05:45:47;;;;;;;0.20;0.20;;;;;;;-149.78;100.00;50561.41;5030916;28;20505;-67
2021/11/27 05:48:13;;;;;;;0.15;0.13;;;;;;;-149.78;100.00;50561.41;5033621;28;20033;-68
2021/11/27 05:50:39;;;;;;;0.22;0.10;;;;;;;-149.78;100.00;50573.16;5032765;28;20435;-68
2021/11/27 05:53:05;;;;;;;1.85;0.20;;;;;;;-149.78;100.00;50537.94;5035722;28;20141;-67
2021/11/27 05:55:32;;;;;;;0.20;0.20;;;;;;;-149.78;100.00;50565.31;5038095;28;20095;-67
2021/11/27 05:57:58;;;;;;;1.45;0.30;;;;;;;-149.78;100.00;50600.53;5035754;28;20362;-68
2021/11/27 06:00:23;;;;;;;0.10;0.10;;;;;;;-149.78;100.00;50580.97;5035076;28;20045;-68
2021/11/27 06:02:49;;;;;;;0.45;0.30;;;;;;;-149.78;100.00;50555.53;5031521;28;20034;-68
2021/11/27 06:05:15;;;;;;;0.20;0.20;;;;;;;-149.78;100.00;50596.63;5032503;28;20037;-67
2021/11/27 06:07:41;;;;;;;0.20;0.20;;;;;;;-149.78;100.00;50498.81;5020735;28;20041;-67
2021/11/27 06:10:07;;;;;;;0.55;0.40;;;;;;;-149.78;100.00;50580.97;5040678;28;20041;-67
2021/11/27 06:12:33;;;;;;;0.65;0.40;;;;;;;-149.78;100.00;50555.53;5036140;28;20040;-67
2021/11/27 06:14:59;;;;;;;2.17;0.40;;;;;;;-149.78;100.00;50577.06;5032030;28;20041;-68
2021/11/27 06:17:25;;;;;;;0.35;0.30;;;;;;;-149.78;100.00;50604.44;5035562;28;20087;-68
2021/11/27 06:19:51;;;;;;;0.52;0.40;;;;;;;-149.78;100.00;50545.75;5032631;28;20396;-67
2021/11/27 06:22:16;;;;;;;0.70;0.50;;;;;;;-149.78;100.00;50561.41;5031388;28;20041;-67
2021/11/27 06:24:42;;;;;;;1.10;0.50;;;;;;;-149.78;100.00;50549.69;5033865;28;20048;-68
2021/11/27 06:27:08;;;;;;;0.93;0.50;;;;;;;-149.78;100.00;50577.06;5035090;28;20045;-68
2021/11/27 06:29:37;;;;;;;0.80;0.35;;;;;;;-149.78;100.00;50553.59;5034865;28;20037;-68
2021/11/27 06:32:08;;;;;;;0.22;0.20;;;;;;;-149.78;100.00;50580.97;5032944;28;20163;-68
2021/11/27 06:34:34;;;;;;;0.47;0.28;;;;;;;-149.78;100.00;50602.47;5032644;28;20052;-68
2021/11/27 06:37:00;;;;;;;0.47;0.32;;;;;;;-149.78;100.00;50571.19;5031859;28;20415;-68
2021/11/27 06:39:26;;;;;;;0.40;0.30;;;;;;;-149.78;100.00;50584.88;5033045;28;20049;-67
2021/11/27 06:41:52;;;;;;;0.10;0.10;;;;;;;-149.78;100.00;50565.31;5031726;28;20037;-68
2021/11/27 06:44:17;;;;;;;0.65;0.20;;;;;;;-149.78;100.00;50592.72;5031809;28;20087;-68
2021/11/27 06:46:43;;;;;;;0.30;0.20;;;;;;;-149.78;100.00;50569.22;5034114;28;20029;-67
2021/11/27 06:49:09;;;;;;;0.28;0.20;;;;;;;-149.78;100.00;50610.31;5030988;28;20029;-67
2021/11/27 06:51:34;;;;;;;0.20;0.20;;;;;;;-149.78;100.00;50600.53;5033302;28;20392;-67
2021/11/27 06:54:00;;;;;;;0.75;0.20;;;;;;;-149.78;100.00;50579.00;5027729;28;20034;-67
2021/11/27 06:56:25;;;;;;;2.67;0.30;;;;;;;-149.78;100.00;50588.78;5032407;28;20033;-67
2021/11/27 06:58:51;;;;;;;4.15;1.98;;;;;;;-149.78;100.00;50588.78;5032171;28;20116;-68
2021/11/27 07:01:17;;;;;;;11.68;2.67;;;;;;;-149.78;100.00;50561.41;5029811;28;20426;-68
2021/11/27 07:03:42;;;;;;;3.58;1.70;;;;;;;-149.78;100.00;50600.53;5033996;28;20052;-68
2021/11/27 07:06:08;;;;;;;10.77;3.63;;;;;;;-149.78;100.00;50565.31;5025821;28;20095;-67
2021/11/27 07:08:33;;;;;;;1.70;0.85;;;;;;;-149.78;100.00;50543.81;5018750;28;20033;-68
2021/11/27 07:10:59;;;;;;;3.92;1.35;;;;;;;-149.78;100.00;50565.31;5019645;28;20117;-68
2021/11/27 07:13:25;;;;;;;2.10;1.08;;;;;;;-149.78;100.00;50575.09;5023580;28;20045;-68
2021/11/27 07:15:50;;;;;;;5.15;1.38;;;;;;;-149.78;100.00;50561.41;5022389;28;20384;-68
2021/11/27 07:18:16;;;;;;;3.55;1.25;;;;;;;-149.78;100.00;50557.50;5020091;28;20040;-68
2021/11/27 07:20:42;;;;;;;2.70;0.88;;;;;;;-149.78;100.00;50557.50;5030930;28;20033;-68
2021/11/27 07:23:09;;;;;;;7.03;1.00;;;;;;;-149.78;100.00;50584.88;5028288;28;20376;-68
2021/11/27 07:25:35;;;;;;;2.53;1.00;;;;;;;-149.78;100.00;50557.50;5030132;28;20041;-68
2021/11/27 07:28:01;;;;;;;3.22;1.00;;;;;;;-149.78;100.00;50573.16;5027083;28;20092;-68
2021/11/27 07:30:27;;;;;;;2.03;0.98;;;;;;;-149.78;100.00;50545.75;5021730;28;20029;-68
2021/11/27 07:32:53;;;;;;;3.70;1.20;;;;;;;-149.78;100.00;50565.31;5021981;28;20033;-68
2021/11/27 07:35:18;;;;;;;3.42;1.38;;;;;;;-149.78;100.00;50565.31;5018249;28;20041;-68
2021/11/27 07:37:44;;;;;;;6.65;1.25;;;;;;;-149.78;100.00;50561.41;5019152;28;20025;-68
2021/11/27 07:40:10;;;;;;;4.50;1.75;;;;;;;-149.78;100.00;50577.06;5016726;28;20121;-68
2021/11/27 07:42:35;;;;;;;6.57;1.80;;;;;;;-149.78;100.00;50555.53;5022001;28;20076;-68
2021/11/27 07:45:01;;;;;;;8.90;2.35;;;;;;;-149.78;100.00;50573.16;5021674;28;20050;-68
2021/11/27 07:47:27;;;;;;;15.63;2.97;;;;;;;-149.78;100.00;50596.63;5018864;28;20034;-68
2021/11/27 07:49:52;;;;;;;31.48;4.18;;;;;;;-149.78;100.00;50565.31;5014959;28;20103;-68
2021/11/27 07:52:21;;;;;;;14.93;2.60;;;;;;;-149.78;100.00;50565.31;5017708;28;20116;-67
2021/11/27 07:54:49;;;;;;;20.98;2.50;;;;;;;-149.78;100.00;50620.09;5019477;28;20041;-68
2021/11/27 07:57:15;;;;;;;20.00;3.03;;;;;;;-149.78;100.00;50553.59;5016147;28;20319;-68
2021/11/27 07:59:41;;;;;;;22.50;2.92;;;;;;;-149.78;100.00;50545.75;5014257;28;20531;-68
2021/11/27 08:02:07;;;;;;;22.70;3.35;;;;;;;-149.78;100.00;50586.84;5015266;28;20034;-68
2021/11/27 08:04:32;;;;;;;24.85;3.22;;;;;;;-149.78;100.00;50557.50;5018481;28;20435;-68
2021/11/27 08:06:58;;;;;;;24.88;3.55;;;;;;;-149.78;100.00;50582.94;5017512;28;20088;-68
2021/11/27 08:09:24;;;;;;;17.45;4.28;;;;;;;-149.78;100.00;50555.53;5017861;28;20045;-68
2021/11/27 08:11:49;;;;;;;20.13;3.40;;;;;;;-149.78;100.00;50600.53;5018073;28;20252;-68
2021/11/27 08:14:15;;;;;;;24.88;3.70;;;;;;;-149.78;100.00;50616.19;5017127;28;20040;-68
2021/11/27 08:16:41;;;;;;;18.52;3.10;;;;;;;-149.78;100.00;50557.50;5021135;28;20048;-68
2021/11/27 08:19:06;;;;;;;25.77;3.55;;;;;;;-149.78;100.00;50553.59;5017380;28;20094;-68
2021/11/27 08:21:32;;;;;;;20.48;2.78;;;;;;;-149.78;100.00;50549.69;5018593;28;20121;-68
2021/11/27 08:23:57;;;;;;;24.33;3.58;;;;;;;-149.78;100.00;50571.19;5020032;28;20026;-67
2021/11/27 08:26:23;;;;;;;16.42;2.17;;;;;;;-149.78;100.00;50561.41;5020131;28;20034;-68
2021/11/27 08:28:49;;;;;;;17.85;2.20;;;;;;;-149.78;100.00;50557.50;5017418;28;20029;-67
2021/11/27 08:31:15;;;;;;;23.58;3.10;;;;;;;-149.78;100.00;50553.59;5015272;28;20156;-67
2021/11/27 08:33:41;;;;;;;17.35;2.70;;;;;;;-149.78;100.00;50545.75;5019572;28;20121;-67
2021/11/27 08:36:09;;;;;;;12.63;2.17;;;;;;;-149.78;100.00;50549.69;5019898;28;20042;-67
2021/11/27 08:38:35;;;;;;;21.75;2.83;;;;;;;-149.78;100.00;50577.06;5014580;28;20730;-67
2021/11/27 08:41:01;;;;;;;21.33;3.33;;;;;;;-149.78;100.00;50557.50;5017797;28;20108;-67
2021/11/27 08:43:27;;;;;;;12.10;2.70;;;;;;;-149.78;100.00;50596.63;5016537;28;20184;-67
2021/11/27 08:45:52;;;;;;;14.52;2.90;;;;;;;-149.78;100.00;50565.31;5010839;28;20042;-67
2021/11/27 08:48:18;;;;;;;20.38;3.75;;;;;;;-149.78;100.00;50573.16;5018362;28;20041;-67
2021/11/27 08:50:44;;;;;;;11.32;2.00;;;;;;;-149.78;100.00;50571.19;5013253;28;20160;-67
2021/11/27 08:53:10;;;;;;;9.88;2.13;;;;;;;-149.78;100.00;50561.41;5014655;28;20120;-67
2021/11/27 08:55:36;;;;;;;18.83;3.17;;;;;;;-149.78;100.00;50557.50;5016788;28;20109;-67
2021/11/27 08:58:01;;;;;;;13.55;2.03;;;;;;;-149.78;100.00;50541.84;5016274;28;20040;-66
2021/11/27 09:00:27;;;;;;;16.80;2.42;;;;;;;-149.78;100.00;50526.22;5022516;28;20228;-66
2021/11/27 09:02:57;;;;;;;15.75;2.15;;;;;;;-149.78;100.00;50549.69;5022287;28;20028;-66
2021/11/27 09:05:24;;;;;;;16.63;2.70;;;;;;;-149.78;100.00;50547.72;5022317;28;20049;-68
2021/11/27 09:07:50;;;;;;;13.07;2.60;;;;;;;-149.78;100.00;50537.94;5021567;28;20021;-66
2021/11/27 09:10:16;;;;;;;20.60;2.78;;;;;;;-149.78;100.00;50577.06;5021621;28;20034;-68
2021/11/27 09:12:42;;;;;;;20.52;2.45;;;;;;;-149.78;100.00;50545.75;5022413;28;20045;-66
2021/11/27 09:15:09;;;;;;;22.52;2.30;;;;;;;-149.78;100.00;50586.84;5023664;28;20025;-66
2021/11/27 09:17:35;;;;;;;25.52;3.13;;;;;;;-149.78;100.00;50510.56;5026498;28;20041;-66
2021/11/27 09:20:03;;;;;;;16.40;2.78;;;;;;;-149.78;100.00;50518.38;5028979;28;20037;-67
2021/11/27 09:22:28;;;;;;;14.32;2.22;;;;;;;-149.78;100.00;50537.94;5025809;28;20041;-67
2021/11/27 09:24:54;;;;;;;14.93;2.25;;;;;;;-149.78;100.00;50537.94;5028629;28;20033;-67
2021/11/27 09:27:20;;;;;;;15.52;2.45;;;;;;;-149.78;100.00;50545.75;5025996;28;20026;-68
2021/11/27 09:29:45;;;;;;;14.45;2.08;;;;;;;-149.78;100.00;50539.91;5025416;28;20034;-67
2021/11/27 09:32:11;;;;;;;13.63;2.78;;;;;;;-149.78;100.00;50541.84;5024999;28;20046;-69
2021/11/27 09:34:37;;;;;;;12.73;2.15;;;;;;;-149.78;100.00;50565.31;5032249;28;20045;-69
2021/11/27 09:37:04;;;;;;;11.73;2.90;;;;;;;-149.78;100.00;50534.03;5028863;28;20087;-69
2021/11/27 09:39:30;;;;;;;20.10;2.17;;;;;;;-149.78;100.00;50557.50;5027299;28;20033;-68
2021/11/27 09:41:57;;;;;;;8.52;1.90;;;;;;;-149.78;100.00;50561.41;5034253;28;20369;-67
2021/11/27 09:44:23;;;;;;;18.70;1.90;;;;;;;-149.78;100.00;50541.84;5039952;28;20480;-68
2021/11/27 09:46:49;;;;;;;12.60;2.10;;;;;;;-149.78;100.00;50545.75;5028845;28;20043;-69
2021/11/27 09:49:19;;;;;;;11.15;2.28;;;;;;;-149.78;100.00;50580.97;5024160;28;20029;-68
2021/11/27 09:51:46;;;;;;;13.52;2.40;;;;;;;-149.78;100.00;50557.50;5018681;28;20040;-69
2021/11/27 09:54:16;;;;;;;15.43;2.67;;;;;;;-149.78;100.00;50553.59;5021002;28;20025;-68
2021/11/27 09:56:46;;;;;;;10.40;2.15;;;;;;;-149.78;100.00;50577.06;5022097;28;20037;-67
2021/11/27 09:59:12;;;;;;;10.95;2.17;;;;;;;-149.78;100.00;50530.13;5023137;28;20030;-67
2021/11/27 10:01:45;;;;;;;18.73;2.55;;;;;;;-149.78;100.00;50534.03;5027489;28;20039;-67
2021/11/27 10:04:12;;;;;;;19.52;2.83;;;;;;;-149.78;100.00;50506.66;5031196;28;20033;-67
2021/11/27 10:06:44;;;;;;;13.57;2.78;;;;;;;-149.78;100.00;50534.03;5032911;28;20163;-67
2021/11/27 10:09:12;;;;;;;11.57;2.10;;;;;;;-149.78;100.00;50561.41;5029888;28;20096;-68
2021/11/27 10:11:39;;;;;;;18.38;2.70;;;;;;;-149.78;100.00;50541.84;5033463;28;20313;-67
2021/11/27 10:14:05;;;;;;;19.98;2.67;;;;;;;-149.78;100.00;50541.84;5034221;28;20112;-67
2021/11/27 10:16:33;;;;;;;25.08;3.33;;;;;;;-149.78;100.00;50557.50;5034487;28;20033;-67
2021/11/27 10:19:07;;;;;;;19.40;2.22;;;;;;;-149.78;100.00;50569.22;5034220;28;20029;-67
2021/11/27 10:21:34;;;;;;;11.18;2.10;;;;;;;-149.78;100.00;50532.06;5021318;28;20025;-67
2021/11/27 10:24:14;;;;;;;16.80;2.30;;;;;;;-149.78;100.00;50561.41;5034221;28;20036;-67
2021/11/27 10:26:39;;;;;;;14.40;2.72;;;;;;;-149.78;100.00;50541.84;5032025;28;20033;-68
2021/11/27 10:29:11;;;;;;;8.18;1.95;;;;;;;-149.78;100.00;50526.22;5034259;28;20385;-67
2021/11/27 10:31:37;;;;;;;15.35;2.25;;;;;;;-149.78;100.00;50541.84;5030279;28;20393;-68
2021/11/27 10:34:03;;;;;;;12.45;2.15;;;;;;;-149.78;100.00;50545.75;5033936;28;20029;-67
2021/11/27 10:36:33;;;;;;;13.88;2.03;;;;;;;-149.78;100.00;50553.59;5027932;28;20120;-67
2021/11/27 10:39:07;;;;;;;20.52;2.60;;;;;;;-149.78;100.00;50530.13;5029816;28;20033;-67
2021/11/27 10:41:37;;;;;;;14.80;2.00;;;;;;;-149.78;100.00;50600.53;5032419;28;20028;-67
2021/11/27 10:44:10;;;;;;;9.85;2.10;;;;;;;-149.78;100.00;50534.03;5034252;28;20031;-67
2021/11/27 10:46:38;;;;;;;9.98;2.75;;;;;;;-149.78;100.00;50557.50;5030513;28;20040;-67
2021/11/27 10:49:06;;;;;;;9.48;1.77;;;;;;;-149.78;100.00;50549.69;5032256;28;20098;-67
2021/11/27 10:51:33;;;;;;;13.50;1.90;;;;;;;-149.78;100.00;50549.69;5033722;28;20021;-67
2021/11/27 10:54:02;;;;;;;13.02;1.63;;;;;;;-149.78;100.00;50592.72;5033679;28;20040;-68
2021/11/27 10:56:54;;;;;;;13.07;1.80;;;;;;;-149.78;100.00;50541.84;5034680;28;20032;-67
2021/11/27 10:59:19;;;;;;;10.10;2.43;;;;;;;-149.78;100.00;50543.81;5020114;28;20111;-68
2021/11/27 11:01:59;;;;;;;11.57;1.70;;;;;;;-149.78;100.00;50549.69;5030823;28;20037;-67
2021/11/27 11:04:24;;;;;;;11.23;2.00;;;;;;;-149.78;100.00;50537.94;5034912;28;20025;-68
2021/11/27 11:07:10;;;;;;;11.00;2.05;;;;;;;-149.78;100.00;50553.59;5034651;28;20551;-68